Time;durP1;ratioP1;P1;durP2;ratioP2;P2;SDS_P1;SDS_P2;PMS_P1;PMS_P2;Temp;Humidity;BMP_temperature;BMP_pressure;BME280_temperature;BME280_humidity;BME280_pressure;Samples;Min_cycle;Max_cycle;Signal;HPM_P1;HPM_P2
2024/02/05 00:01:50;;;;;;;6.93;1.90;;;;;;;18.79;49.61;102012.69;5007398;28;20025;-67
2024/02/05 00:04:15;;;;;;;7.80;2.20;;;;;;;18.86;49.65;102018.44;5007924;28;20034;-68
2024/02/05 00:06:40;;;;;;;8.32;2.53;;;;;;;18.75;49.32;102008.53;5008149;28;20030;-68
2024/02/05 00:09:07;;;;;;;6.90;2.08;;;;;;;18.85;49.50;102036.09;5008007;28;20026;-68
2024/02/05 00:11:33;;;;;;;7.32;2.20;;;;;;;18.76;49.26;102014.69;5008081;28;20417;-68
2024/02/05 00:13:59;;;;;;;5.90;1.88;;;;;;;18.72;49.17;102013.19;5008876;28;20062;-68
2024/02/05 00:16:24;;;;;;;7.75;2.22;;;;;;;18.76;49.05;102015.53;5008457;28;20073;-69
2024/02/05 00:18:50;;;;;;;7.40;1.98;;;;;;;18.82;49.36;102024.84;5008925;28;20522;-68
2024/02/05 00:21:16;;;;;;;8.02;2.28;;;;;;;18.79;49.22;102019.75;5008664;28;20034;-70
2024/02/05 00:23:42;;;;;;;8.00;2.65;;;;;;;18.81;49.19;102031.91;5008827;28;21115;-69
2024/02/05 00:26:08;;;;;;;8.43;2.13;;;;;;;18.78;49.24;102016.25;5008803;28;20121;-68
2024/02/05 00:28:33;;;;;;;6.78;2.35;;;;;;;18.66;49.00;101999.44;5008613;28;20403;-67
2024/02/05 00:30:58;;;;;;;7.35;2.72;;;;;;;18.77;49.32;102019.00;5007139;28;20466;-68
2024/02/05 00:33:24;;;;;;;8.05;2.13;;;;;;;18.63;49.32;102004.91;5008866;28;20458;-67
2024/02/05 00:35:49;;;;;;;7.15;2.50;;;;;;;18.65;48.85;102010.09;5008913;28;20045;-68
2024/02/05 00:38:15;;;;;;;8.63;2.55;;;;;;;18.75;49.00;102026.19;5008829;28;20471;-68
2024/02/05 00:40:44;;;;;;;6.25;2.10;;;;;;;18.77;48.90;102024.28;5008856;28;20033;-68
2024/02/05 00:43:10;;;;;;;5.82;2.00;;;;;;;18.61;49.12;101998.03;5007370;28;20062;-69
2024/02/05 00:45:36;;;;;;;7.18;2.60;;;;;;;18.75;49.11;102021.75;5007779;28;20505;-69
2024/02/05 00:48:02;;;;;;;9.65;2.50;;;;;;;18.73;48.90;102023.63;5005695;28;20042;-70
2024/02/05 00:50:27;;;;;;;7.57;2.13;;;;;;;18.71;48.92;102017.63;5007213;28;20034;-69
2024/02/05 00:52:52;;;;;;;9.48;2.60;;;;;;;18.70;48.93;102017.72;5007476;28;20097;-69
2024/02/05 00:55:17;;;;;;;6.72;2.38;;;;;;;18.65;48.90;102012.75;5006569;28;20116;-70
2024/02/05 00:57:43;;;;;;;8.80;2.38;;;;;;;18.58;48.64;102003.50;5008412;28;20442;-69
2024/02/05 01:00:09;;;;;;;8.85;2.78;;;;;;;18.65;48.73;102021.50;5008091;28;20120;-69
2024/02/05 01:02:36;;;;;;;9.27;2.17;;;;;;;18.64;48.70;102021.59;5007356;28;20034;-69
2024/02/05 01:05:03;;;;;;;8.35;2.35;;;;;;;18.65;48.77;102021.50;5007873;28;20083;-68
2024/02/05 01:07:29;;;;;;;8.95;2.40;;;;;;;18.54;48.82;102005.50;5008004;28;20026;-69
2024/02/05 01:09:54;;;;;;;7.53;2.30;;;;;;;18.64;48.43;102029.50;5007752;28;20048;-69
2024/02/05 01:12:19;;;;;;;8.05;2.55;;;;;;;18.57;48.74;102020.31;5007651;28;20030;-70
2024/02/05 01:14:45;;;;;;;7.40;2.28;;;;;;;18.64;48.67;102037.44;5006336;28;20063;-69
2024/02/05 01:17:11;;;;;;;8.55;2.47;;;;;;;18.51;48.77;102013.63;5007813;28;20036;-70
2024/02/05 01:19:36;;;;;;;7.22;2.40;;;;;;;18.49;48.66;102011.09;5007889;28;20117;-69
2024/02/05 01:22:02;;;;;;;8.43;2.20;;;;;;;18.60;48.58;102030.69;5007767;28;20378;-69
2024/02/05 01:24:27;;;;;;;8.85;2.45;;;;;;;18.59;48.38;102018.41;5007543;28;20026;-69
2024/02/05 01:26:52;;;;;;;8.30;2.75;;;;;;;18.60;48.62;102028.88;5007876;28;20034;-69
2024/02/05 01:29:18;;;;;;;9.23;2.30;;;;;;;18.56;48.68;102021.25;5007563;28;20034;-69
2024/02/05 01:31:43;;;;;;;6.60;2.53;;;;;;;18.47;48.19;102004.22;5007300;28;20041;-69
2024/02/05 01:34:09;;;;;;;12.82;3.05;;;;;;;18.53;48.16;102024.09;5007965;28;20057;-69
2024/02/05 01:36:34;;;;;;;8.20;2.47;;;;;;;18.48;48.36;102012.03;5007592;28;20029;-68
2024/02/05 01:39:00;;;;;;;9.20;2.63;;;;;;;18.44;48.55;102001.78;5007110;28;20116;-69
2024/02/05 01:41:25;;;;;;;7.57;2.10;;;;;;;18.54;48.55;102025.78;5007491;28;20728;-69
2024/02/05 01:43:51;;;;;;;10.25;2.97;;;;;;;18.43;48.46;102006.19;5007163;28;20033;-69
2024/02/05 01:46:20;;;;;;;7.97;2.30;;;;;;;18.52;48.20;102006.53;5007338;28;20072;-68
2024/02/05 01:48:50;;;;;;;8.75;2.78;;;;;;;18.54;48.48;102020.50;5007384;28;20061;-69
2024/02/05 01:51:16;;;;;;;7.65;1.98;;;;;;;18.41;48.31;101996.69;5007010;28;20493;-69
2024/02/05 01:53:42;;;;;;;11.18;3.08;;;;;;;18.44;48.27;102007.06;5007470;28;20087;-69
2024/02/05 01:56:09;;;;;;;9.70;2.65;;;;;;;18.41;48.27;101997.53;5006997;28;20455;-69
2024/02/05 01:58:37;;;;;;;9.75;2.88;;;;;;;18.45;48.11;102000.81;5006231;28;20045;-69
2024/02/05 02:01:03;;;;;;;11.40;3.35;;;;;;;18.53;48.33;102010.88;5022070;28;20415;-70
2024/02/05 02:03:28;;;;;;;7.35;2.53;;;;;;;18.48;48.29;101995.34;5006606;28;20030;-69
2024/02/05 02:05:55;;;;;;;9.00;2.60;;;;;;;18.49;48.21;102007.59;5006683;28;20467;-69
2024/02/05 02:08:22;;;;;;;9.02;3.22;;;;;;;18.46;48.11;102007.81;5021772;28;20034;-69
2024/02/05 02:10:48;;;;;;;9.80;3.05;;;;;;;18.42;48.25;101998.38;5006856;28;20060;-68
2024/02/05 02:13:14;;;;;;;9.90;2.47;;;;;;;18.36;48.02;101981.16;5006624;28;20044;-70
2024/02/05 02:15:39;;;;;;;9.15;2.33;;;;;;;18.45;48.08;101993.78;5006750;28;20029;-70
2024/02/05 02:18:09;;;;;;;9.88;2.70;;;;;;;18.39;48.36;101983.59;5006783;28;20475;-69
2024/02/05 02:20:46;;;;;;;8.32;2.92;;;;;;;18.44;48.12;101993.88;5004247;28;20037;-70
2024/02/05 02:23:18;;;;;;;9.00;2.63;;;;;;;18.30;48.16;101969.19;5006566;28;20030;-69
2024/02/05 02:25:47;;;;;;;7.57;2.83;;;;;;;18.44;48.05;101991.22;5006753;28;20033;-70
2024/02/05 02:28:12;;;;;;;8.52;2.28;;;;;;;18.44;48.14;101988.59;5006371;28;20037;-69
2024/02/05 02:30:38;;;;;;;9.25;3.22;;;;;;;18.42;48.18;101993.97;5006676;28;20405;-69
2024/02/05 02:33:21;;;;;;;8.15;2.70;;;;;;;18.44;48.10;102002.63;5006661;28;20034;-69
2024/02/05 02:36:01;;;;;;;8.43;2.45;;;;;;;18.44;48.14;102001.78;5006015;28;20080;-68
2024/02/05 02:38:29;;;;;;;7.22;2.40;;;;;;;18.43;48.14;102002.72;5006526;28;20470;-69
2024/02/05 02:41:05;;;;;;;10.40;2.70;;;;;;;18.41;48.13;101992.25;5006514;28;20030;-69
2024/02/05 02:43:34;;;;;;;11.00;3.22;;;;;;;18.39;48.17;101995.94;5006704;28;20467;-68
2024/02/05 02:46:03;;;;;;;9.95;2.72;;;;;;;18.28;48.10;101984.28;5006272;28;20483;-69
2024/02/05 02:48:28;;;;;;;6.93;2.55;;;;;;;18.37;48.22;102008.38;5006327;28;20061;-69
2024/02/05 02:50:53;;;;;;;10.68;2.60;;;;;;;18.25;48.25;101988.91;5006368;28;20414;-69
2024/02/05 02:53:19;;;;;;;12.30;3.25;;;;;;;18.24;48.03;101988.03;5006147;28;20487;-69
2024/02/05 02:55:44;;;;;;;11.13;3.10;;;;;;;18.24;47.96;101982.78;5005019;28;20036;-69
2024/02/05 02:58:09;;;;;;;10.35;3.10;;;;;;;18.26;48.17;101985.31;5006535;28;20364;-69
2024/02/05 03:00:35;;;;;;;10.15;3.05;;;;;;;18.22;48.13;101981.19;5006071;28;20498;-69
2024/02/05 03:03:01;;;;;;;10.27;3.22;;;;;;;18.35;48.14;102012.91;5005595;28;20038;-69
2024/02/05 03:05:26;;;;;;;10.43;2.97;;;;;;;18.24;48.11;101987.22;5006232;28;20033;-69
2024/02/05 03:07:51;;;;;;;8.85;2.95;;;;;;;18.24;48.10;101992.50;5006395;28;20030;-69
2024/02/05 03:10:16;;;;;;;9.35;2.90;;;;;;;18.23;48.11;101974.94;5005886;28;20040;-69
2024/02/05 03:12:42;;;;;;;9.70;3.13;;;;;;;18.26;47.79;101982.66;5006575;28;20030;-69
2024/02/05 03:15:08;;;;;;;8.05;2.83;;;;;;;18.36;47.90;101998.75;5006207;28;20271;-68
2024/02/05 03:17:33;;;;;;;10.65;3.17;;;;;;;18.20;47.87;101981.28;5006488;28;20030;-69
2024/02/05 03:19:58;;;;;;;11.70;3.10;;;;;;;18.33;47.80;102001.63;5006234;28;20022;-69
2024/02/05 03:22:23;;;;;;;14.38;3.72;;;;;;;18.30;47.98;101986.81;5006134;28;20030;-68
2024/02/05 03:24:49;;;;;;;10.55;3.58;;;;;;;18.21;48.04;101982.97;5006013;28;20439;-69
2024/02/05 03:27:14;;;;;;;9.27;3.33;;;;;;;18.29;47.91;101996.53;5006423;28;20026;-68
2024/02/05 03:29:39;;;;;;;9.73;3.47;;;;;;;18.28;48.25;101994.00;5006320;28;20038;-69
2024/02/05 03:32:05;;;;;;;9.20;3.08;;;;;;;18.18;48.13;101982.31;5007843;28;20033;-69
2024/02/05 03:34:30;;;;;;;9.38;3.03;;;;;;;18.29;47.82;101990.41;5009755;28;20032;-68
2024/02/05 03:36:56;;;;;;;10.25;3.45;;;;;;;18.29;47.92;101999.19;5009990;28;20084;-69
2024/02/05 03:39:21;;;;;;;9.25;2.90;;;;;;;18.30;48.23;102003.50;5009569;28;20075;-69
2024/02/05 03:41:46;;;;;;;9.77;3.00;;;;;;;18.21;47.71;101984.75;5009657;28;20048;-69
2024/02/05 03:44:12;;;;;;;10.07;3.78;;;;;;;18.21;47.92;101976.84;5009424;28;20030;-68
2024/02/05 03:46:37;;;;;;;10.55;3.60;;;;;;;18.17;47.75;101973.56;5009279;28;20513;-69
2024/02/05 03:49:02;;;;;;;11.85;3.30;;;;;;;18.20;47.81;101986.56;5008114;28;20029;-70
2024/02/05 03:51:28;;;;;;;9.35;3.00;;;;;;;18.27;47.76;101987.84;5008570;28;20458;-70
2024/02/05 03:53:53;;;;;;;13.43;3.45;;;;;;;18.26;47.66;101988.81;5009567;28;20030;-69
2024/02/05 03:56:18;;;;;;;9.15;3.15;;;;;;;18.15;47.75;101969.31;5009235;28;20034;-70
2024/02/05 03:58:44;;;;;;;13.27;3.47;;;;;;;18.25;47.81;102002.94;5009194;28;20038;-70
2024/02/05 04:01:10;;;;;;;7.65;2.95;;;;;;;18.21;47.57;101988.25;5009035;28;20041;-70
2024/02/05 04:03:35;;;;;;;10.10;3.75;;;;;;;18.20;48.04;101993.63;5008584;28;20042;-69
2024/02/05 04:06:00;;;;;;;9.23;3.17;;;;;;;18.17;47.80;101983.28;5009404;28;20041;-69
2024/02/05 04:08:26;;;;;;;8.07;2.92;;;;;;;18.15;47.88;101977.25;5009276;28;20040;-69
2024/02/05 04:10:51;;;;;;;10.18;3.13;;;;;;;18.11;47.82;101974.78;5008572;28;20038;-70
2024/02/05 04:13:17;;;;;;;13.05;3.90;;;;;;;18.12;47.74;101981.78;5009200;28;20944;-69
2024/02/05 04:15:43;;;;;;;11.32;3.35;;;;;;;18.21;47.65;101997.97;5008472;28;20045;-69
2024/02/05 04:18:08;;;;;;;12.55;3.40;;;;;;;18.09;47.80;101974.06;5008799;28;20037;-69
2024/02/05 04:20:34;;;;;;;10.60;3.37;;;;;;;18.16;47.74;101979.78;5009017;28;20025;-69
2024/02/05 04:22:59;;;;;;;11.35;3.60;;;;;;;18.12;47.83;101980.94;5008907;28;20267;-69
2024/02/05 04:25:24;;;;;;;12.98;3.33;;;;;;;18.08;47.87;101982.91;5007999;28;20030;-69
2024/02/05 04:27:50;;;;;;;12.85;3.97;;;;;;;18.06;47.86;101976.88;5008590;28;20025;-69
2024/02/05 04:30:16;;;;;;;8.85;3.33;;;;;;;18.09;47.66;101976.69;5007038;28;20037;-69
2024/02/05 04:32:41;;;;;;;12.48;3.30;;;;;;;18.11;47.76;101985.34;5008393;28;20034;-68
2024/02/05 04:35:07;;;;;;;13.82;3.22;;;;;;;18.18;47.68;102003.44;5008621;28;20120;-69
2024/02/05 04:37:33;;;;;;;11.68;4.10;;;;;;;18.08;47.88;101990.81;5008788;28;20026;-69
2024/02/05 04:39:58;;;;;;;11.65;3.88;;;;;;;18.06;47.81;101984.78;5007164;28;20088;-69
2024/02/05 04:42:23;;;;;;;9.93;3.75;;;;;;;18.14;47.82;101992.22;5008222;28;20047;-69
2024/02/05 04:44:49;;;;;;;8.63;3.15;;;;;;;18.07;47.33;101990.91;5007688;28;20065;-69
2024/02/05 04:47:15;;;;;;;10.85;3.15;;;;;;;18.06;48.00;101982.16;5008082;28;20100;-70
2024/02/05 04:49:45;;;;;;;11.43;3.63;;;;;;;18.09;47.65;101986.41;5007996;28;20040;-69
2024/02/05 04:52:10;;;;;;;13.73;3.03;;;;;;;18.12;47.55;101986.22;5007006;28;20062;-69
2024/02/05 04:54:38;;;;;;;10.15;3.35;;;;;;;18.13;47.62;101993.16;5007529;28;20077;-68
2024/02/05 04:57:03;;;;;;;8.80;3.33;;;;;;;18.14;47.57;101984.31;5008297;28;20045;-69
2024/02/05 04:59:28;;;;;;;9.13;3.15;;;;;;;18.16;47.63;101984.22;5008349;28;20030;-69
2024/02/05 05:01:54;;;;;;;13.48;3.58;;;;;;;18.16;47.66;101992.13;5005743;28;20044;-68
2024/02/05 05:04:19;;;;;;;10.65;3.15;;;;;;;18.16;47.93;101976.31;5007693;28;20029;-69
2024/02/05 05:06:44;;;;;;;7.90;3.10;;;;;;;18.19;47.39;101978.75;5007964;28;20032;-69
2024/02/05 05:09:10;;;;;;;9.35;3.13;;;;;;;18.16;47.59;101985.06;5007825;28;20038;-69
2024/02/05 05:11:35;;;;;;;9.88;3.67;;;;;;;18.05;47.58;101964.63;5007900;28;20065;-69
2024/02/05 05:14:00;;;;;;;10.40;3.63;;;;;;;18.04;47.38;101960.31;5008297;28;20044;-68
2024/02/05 05:16:27;;;;;;;8.75;3.05;;;;;;;18.10;47.38;101969.63;5008081;28;20125;-69
2024/02/05 05:18:53;;;;;;;9.93;3.28;;;;;;;18.10;47.44;101970.47;5022787;28;20034;-68
2024/02/05 05:21:18;;;;;;;10.70;3.50;;;;;;;18.04;47.24;101959.44;5007807;28;20042;-69
2024/02/05 05:23:43;;;;;;;13.70;3.70;;;;;;;18.05;47.31;101969.91;5007777;28;20081;-69
2024/02/05 05:26:09;;;;;;;9.10;3.30;;;;;;;18.02;47.53;101956.06;5007792;28;20033;-69
2024/02/05 05:28:38;;;;;;;10.25;3.78;;;;;;;18.17;47.58;101992.03;5008171;28;20390;-69
2024/02/05 05:31:03;;;;;;;9.85;2.95;;;;;;;18.08;47.50;101972.34;5008293;28;20386;-69
2024/02/05 05:33:29;;;;;;;10.52;3.20;;;;;;;18.09;47.15;101979.31;5007692;28;20034;-68
2024/02/05 05:35:54;;;;;;;11.98;3.55;;;;;;;18.07;47.50;101970.66;5007242;28;20121;-69
2024/02/05 05:38:20;;;;;;;8.90;3.25;;;;;;;18.16;47.34;101978.94;5007534;28;20072;-69
2024/02/05 05:40:45;;;;;;;11.07;3.42;;;;;;;18.02;47.18;101959.53;5007308;28;20041;-69
2024/02/05 05:43:10;;;;;;;9.88;3.55;;;;;;;18.10;47.56;101970.47;5007520;28;20374;-69
2024/02/05 05:45:35;;;;;;;11.32;4.20;;;;;;;18.05;47.30;101958.50;5007423;28;20037;-69
2024/02/05 05:48:01;;;;;;;11.85;3.08;;;;;;;18.03;47.32;101969.16;5007457;28;20054;-69
2024/02/05 05:50:27;;;;;;;8.95;3.10;;;;;;;18.03;47.51;101957.78;5007240;28;20423;-69
2024/02/05 05:52:52;;;;;;;10.45;3.63;;;;;;;18.09;47.31;101960.03;5007437;28;20075;-68
2024/02/05 05:55:18;;;;;;;10.45;3.65;;;;;;;17.97;47.13;101947.59;5007239;28;20026;-69
2024/02/05 05:57:43;;;;;;;10.77;3.60;;;;;;;18.11;47.22;101972.16;5007370;28;20463;-68
2024/02/05 06:00:09;;;;;;;16.20;4.37;;;;;;;17.90;47.23;101939.25;5006830;28;20471;-69
2024/02/05 06:02:34;;;;;;;10.68;3.50;;;;;;;18.08;47.39;101976.78;5006573;28;20306;-69
2024/02/05 06:05:00;;;;;;;11.43;3.45;;;;;;;18.04;47.36;101970.00;5006608;28;20073;-70
2024/02/05 06:07:25;;;;;;;8.30;3.55;;;;;;;18.00;47.25;101965.88;5007184;28;20037;-70
2024/02/05 06:09:50;;;;;;;9.73;3.35;;;;;;;18.04;47.21;101962.94;5006545;28;20037;-69
2024/02/05 06:12:16;;;;;;;11.10;3.42;;;;;;;17.95;47.22;101948.53;5006657;28;20112;-69
2024/02/05 06:14:43;;;;;;;10.55;2.97;;;;;;;17.94;47.26;101956.53;5006661;28;20160;-69
2024/02/05 06:17:09;;;;;;;11.75;3.15;;;;;;;17.93;47.16;101945.16;5005908;28;20501;-69
2024/02/05 06:19:34;;;;;;;7.82;3.03;;;;;;;17.93;47.20;101942.53;5006531;28;20018;-68
2024/02/05 06:21:59;;;;;;;9.10;3.15;;;;;;;17.95;47.53;101939.78;5006962;28;20488;-69
2024/02/05 06:24:25;;;;;;;8.23;3.28;;;;;;;18.11;47.55;101952.84;5006339;28;20478;-69
2024/02/05 06:26:50;;;;;;;9.23;3.30;;;;;;;17.96;47.37;101925.66;5007175;28;20037;-68
2024/02/05 06:29:15;;;;;;;8.30;2.70;;;;;;;18.10;47.52;101954.66;5006667;28;20049;-68
2024/02/05 06:31:40;;;;;;;7.72;2.90;;;;;;;18.14;47.73;101960.56;5006449;28;20042;-68
2024/02/05 06:34:06;;;;;;;8.30;3.28;;;;;;;18.15;47.53;101974.59;5005017;28;20045;-69
2024/02/05 06:36:31;;;;;;;8.57;2.85;;;;;;;18.05;47.75;101951.44;5006652;28;20034;-68
2024/02/05 06:38:56;;;;;;;10.05;2.97;;;;;;;18.22;47.67;101973.28;5006299;28;20032;-68
2024/02/05 06:41:22;;;;;;;8.20;2.70;;;;;;;18.15;47.60;101954.34;5006475;28;20034;-69
2024/02/05 06:43:47;;;;;;;8.68;3.58;;;;;;;18.20;47.80;101948.75;5006460;28;20201;-69
2024/02/05 06:46:15;;;;;;;7.85;2.38;;;;;;;18.24;47.53;101955.53;5006397;28;20360;-69
2024/02/05 06:48:40;;;;;;;8.07;2.40;;;;;;;18.19;47.81;101953.19;5006430;28;20439;-70
2024/02/05 06:51:06;;;;;;;7.70;2.65;;;;;;;18.17;47.54;101952.47;5005817;28;20057;-69
2024/02/05 06:53:31;;;;;;;10.55;2.63;;;;;;;18.32;47.67;101974.38;5006295;28;20045;-69
2024/02/05 06:55:57;;;;;;;7.00;2.55;;;;;;;18.19;47.49;101957.63;5006396;28;20084;-69
2024/02/05 06:58:22;;;;;;;8.25;2.85;;;;;;;18.31;47.42;101983.25;5004905;28;20507;-69
2024/02/05 07:00:47;;;;;;;8.93;3.15;;;;;;;18.24;47.47;101950.28;5006463;28;20088;-69
2024/02/05 07:03:13;;;;;;;10.23;3.03;;;;;;;18.28;47.59;101957.06;5005945;28;20049;-69
2024/02/05 07:05:38;;;;;;;9.27;2.80;;;;;;;18.27;47.44;101965.91;5006448;28;20076;-69
2024/02/05 07:08:04;;;;;;;7.75;2.92;;;;;;;18.41;47.31;101975.59;5009769;28;20467;-68
2024/02/05 07:10:29;;;;;;;8.85;2.83;;;;;;;18.42;47.21;101980.75;5010057;28;20109;-69
2024/02/05 07:12:55;;;;;;;7.85;3.00;;;;;;;18.39;47.19;101974.81;5010690;28;20399;-69
2024/02/05 07:15:20;;;;;;;7.10;2.97;;;;;;;18.33;47.49;101962.88;5009848;28;20041;-68
2024/02/05 07:17:47;;;;;;;8.25;2.47;;;;;;;18.28;47.20;101952.63;5010254;28;20351;-69
2024/02/05 07:20:12;;;;;;;9.27;2.55;;;;;;;18.31;47.20;101949.78;5010100;28;20088;-69
2024/02/05 07:22:38;;;;;;;7.25;2.60;;;;;;;18.42;47.29;101977.25;5009994;28;20490;-69
2024/02/05 07:25:03;;;;;;;7.63;2.28;;;;;;;18.41;47.14;101968.50;5010140;28;20030;-70
2024/02/05 07:27:29;;;;;;;7.07;2.47;;;;;;;18.41;47.07;101972.94;5009755;28;20038;-68
2024/02/05 07:29:54;;;;;;;8.88;2.80;;;;;;;18.31;46.81;101956.88;5009341;28;20089;-68
2024/02/05 07:32:20;;;;;;;8.48;3.05;;;;;;;18.36;46.87;101969.72;5009632;28;20038;-69
2024/02/05 07:34:46;;;;;;;8.68;2.67;;;;;;;18.32;46.89;101963.81;5010002;28;20045;-67
2024/02/05 07:37:12;;;;;;;9.25;3.05;;;;;;;18.39;47.00;101991.53;5009779;28;20045;-72
2024/02/05 07:39:37;;;;;;;8.85;2.90;;;;;;;18.36;46.93;101989.06;5009557;28;20030;-67
2024/02/05 07:42:03;;;;;;;7.72;2.70;;;;;;;18.24;47.49;101966.94;5009380;28;20022;-70
2024/02/05 07:44:28;;;;;;;11.23;3.42;;;;;;;18.40;47.15;101992.34;5009230;28;20467;-69
2024/02/05 07:46:54;;;;;;;8.20;2.80;;;;;;;18.43;47.40;101989.53;5009173;28;20045;-68
2024/02/05 07:49:19;;;;;;;11.27;3.00;;;;;;;18.33;47.31;101980.50;5009333;28;20033;-71
2024/02/05 07:51:48;;;;;;;7.72;2.55;;;;;;;18.33;47.38;101980.50;5009421;28;20107;-66
2024/02/05 07:54:14;;;;;;;7.53;3.05;;;;;;;18.31;47.21;101983.25;5009250;28;20033;-68
2024/02/05 07:56:43;;;;;;;8.80;2.83;;;;;;;18.35;47.46;101981.25;5024085;28;20062;-69
2024/02/05 07:59:11;;;;;;;9.63;2.72;;;;;;;18.44;47.55;102002.63;5009210;28;20047;-68
2024/02/05 08:01:37;;;;;;;9.95;3.00;;;;;;;18.42;47.53;101996.59;5008953;28;20120;-69
2024/02/05 08:04:03;;;;;;;9.02;3.17;;;;;;;18.39;47.61;101993.28;5008210;28;20140;-69
2024/02/05 08:06:29;;;;;;;10.88;2.95;;;;;;;18.42;47.69;101996.59;5009539;28;20041;-67
2024/02/05 08:08:55;;;;;;;10.05;3.25;;;;;;;18.40;47.83;102002.91;5009028;28;20120;-68
2024/02/05 08:11:21;;;;;;;11.20;2.90;;;;;;;18.30;47.78;101985.03;5008549;28;20550;-68
2024/02/05 08:13:47;;;;;;;9.32;2.83;;;;;;;18.36;47.64;101990.84;5008824;28;20034;-68
2024/02/05 08:16:12;;;;;;;12.02;3.20;;;;;;;18.44;47.92;102001.78;5008830;28;20471;-69
2024/02/05 08:18:38;;;;;;;9.05;3.20;;;;;;;18.47;47.99;102004.22;5007468;28;20034;-67
2024/02/05 08:21:04;;;;;;;9.35;3.40;;;;;;;18.47;47.90;102001.59;5008632;28;20038;-67
2024/02/05 08:23:30;;;;;;;10.52;2.78;;;;;;;18.41;48.12;102002.81;5008785;28;20131;-67
2024/02/05 08:25:55;;;;;;;7.63;2.40;;;;;;;18.44;47.90;102005.25;5008174;28;20478;-68
2024/02/05 08:28:20;;;;;;;7.47;2.42;;;;;;;18.47;48.07;102005.06;5008377;28;20044;-67
2024/02/05 08:30:46;;;;;;;9.55;2.90;;;;;;;18.39;47.92;101991.53;5008541;28;20080;-68
2024/02/05 08:33:13;;;;;;;9.63;3.25;;;;;;;18.31;47.49;101988.53;5008710;28;20025;-67
2024/02/05 08:35:40;;;;;;;10.43;2.95;;;;;;;18.45;47.68;102006.97;5008579;28;20463;-68
2024/02/05 08:38:06;;;;;;;7.70;2.58;;;;;;;18.45;48.03;102009.59;5008718;28;20033;-68
2024/02/05 08:40:31;;;;;;;7.53;2.53;;;;;;;18.41;48.17;102005.47;5008370;28;20033;-68
2024/02/05 08:42:56;;;;;;;10.40;2.80;;;;;;;18.35;47.91;101983.91;5008661;28;20038;-67
2024/02/05 08:45:23;;;;;;;8.63;2.40;;;;;;;18.46;47.87;102013.06;5008466;28;20022;-67
2024/02/05 08:47:49;;;;;;;9.18;3.30;;;;;;;18.46;47.84;102003.34;5008553;28;20053;-67
2024/02/05 08:50:14;;;;;;;8.32;2.90;;;;;;;18.37;48.04;101997.81;5008612;28;20422;-67
2024/02/05 08:52:40;;;;;;;9.45;3.22;;;;;;;18.45;48.59;102008.72;5008204;28;20111;-70
2024/02/05 08:55:06;;;;;;;8.25;3.10;;;;;;;18.51;48.72;102010.16;5008477;28;20064;-69
2024/02/05 08:57:31;;;;;;;10.57;2.75;;;;;;;18.51;48.99;102005.72;5008315;28;20033;-68
2024/02/05 08:59:56;;;;;;;8.82;3.17;;;;;;;18.45;48.76;101992.91;5008183;28;20084;-69
2024/02/05 09:02:22;;;;;;;9.40;2.63;;;;;;;18.54;48.47;102013.44;5007751;28;20076;-68
2024/02/05 09:04:47;;;;;;;10.27;2.95;;;;;;;18.45;48.74;101993.78;5008198;28;20025;-69
2024/02/05 09:07:12;;;;;;;10.25;2.95;;;;;;;18.51;48.12;101995.16;5008423;28;20030;-69
2024/02/05 09:09:38;;;;;;;9.77;2.60;;;;;;;18.54;47.99;102009.94;5007609;28;20084;-69
2024/02/05 09:12:03;;;;;;;10.63;2.60;;;;;;;18.42;47.93;101986.03;5007245;28;20080;-65
2024/02/05 09:14:29;;;;;;;10.63;3.00;;;;;;;18.40;48.10;101976.50;5006609;28;20372;-66
2024/02/05 09:16:54;;;;;;;9.70;3.17;;;;;;;18.47;48.01;101993.66;5007716;28;20037;-67
2024/02/05 09:19:19;;;;;;;9.57;3.53;;;;;;;18.46;48.09;101990.16;5007764;28;20294;-67
2024/02/05 09:21:45;;;;;;;10.15;3.90;;;;;;;18.37;48.10;101974.06;5008101;28;20072;-68
2024/02/05 09:24:10;;;;;;;9.82;3.67;;;;;;;18.48;48.16;101998.84;5008015;28;20112;-67
2024/02/05 09:26:35;;;;;;;13.05;3.33;;;;;;;18.36;48.79;101977.66;5007683;28;20129;-67
2024/02/05 09:29:01;;;;;;;7.63;2.92;;;;;;;18.46;48.47;102007.81;5007150;28;20037;-67
2024/02/05 09:31:26;;;;;;;11.35;3.83;;;;;;;18.41;48.08;101976.41;5007486;28;20398;-68
2024/02/05 09:33:51;;;;;;;11.80;3.65;;;;;;;18.38;48.01;101971.34;5006980;28;20030;-67
2024/02/05 09:36:17;;;;;;;8.95;3.00;;;;;;;18.52;48.22;101990.69;5006030;28;20364;-68
2024/02/05 09:38:42;;;;;;;11.13;3.58;;;;;;;18.47;48.22;101991.03;5007194;28;20034;-68
2024/02/05 09:41:11;;;;;;;9.77;3.13;;;;;;;18.48;47.89;101987.41;5007513;28;20034;-67
2024/02/05 09:43:38;;;;;;;10.85;3.75;;;;;;;18.47;47.89;101993.66;5007136;28;20105;-66
2024/02/05 09:46:11;;;;;;;6.95;3.22;;;;;;;18.49;47.69;101995.25;5007111;28;20080;-67
2024/02/05 09:48:38;;;;;;;10.80;2.95;;;;;;;18.43;48.08;101981.59;5007320;28;20062;-67
2024/02/05 09:51:04;;;;;;;11.43;3.55;;;;;;;18.51;47.81;102002.22;5007516;28;20037;-67
2024/02/05 09:53:32;;;;;;;9.15;3.50;;;;;;;18.49;47.73;101981.22;5007335;28;20028;-67
2024/02/05 09:55:58;;;;;;;9.40;3.20;;;;;;;18.52;47.90;101988.94;5007278;28;20037;-66
2024/02/05 09:58:23;;;;;;;13.23;3.72;;;;;;;18.50;48.01;101985.56;5021194;28;20038;-66
2024/02/05 10:00:50;;;;;;;8.95;3.25;;;;;;;18.49;47.82;101983.84;5007267;28;20033;-67
2024/02/05 10:03:17;;;;;;;9.88;3.53;;;;;;;18.46;47.83;101978.75;5006420;28;20631;-66
2024/02/05 10:05:44;;;;;;;8.48;3.38;;;;;;;18.37;47.81;101955.59;5006975;28;20083;-68
2024/02/05 10:08:11;;;;;;;9.20;3.60;;;;;;;18.45;47.97;101970.00;5006899;28;20652;-67
2024/02/05 10:10:39;;;;;;;11.13;3.33;;;;;;;18.35;47.78;101937.22;5022026;28;20030;-68
2024/02/05 10:13:06;;;;;;;10.35;3.63;;;;;;;18.54;47.94;101965.06;5007102;28;20064;-66
2024/02/05 10:15:31;;;;;;;7.65;2.92;;;;;;;18.38;47.84;101947.59;5006870;28;20069;-69
2024/02/05 10:17:57;;;;;;;10.10;3.30;;;;;;;18.48;47.82;101966.31;5006843;28;20100;-67
2024/02/05 10:20:33;;;;;;;11.95;3.88;;;;;;;18.51;47.71;101958.19;5006208;28;20499;-67
2024/02/05 10:22:59;;;;;;;16.98;3.33;;;;;;;18.48;47.89;101961.03;5006336;28;20041;-66
2024/02/05 10:25:26;;;;;;;9.85;2.92;;;;;;;18.49;47.76;101968.84;5006148;28;20482;-66
2024/02/05 10:27:59;;;;;;;11.15;3.95;;;;;;;18.44;47.88;101963.03;5002989;28;20033;-65
2024/02/05 10:30:27;;;;;;;9.15;3.90;;;;;;;18.43;47.90;101957.84;5003017;28;20038;-65
2024/02/05 10:32:59;;;;;;;10.40;3.22;;;;;;;18.55;47.82;101969.38;5001221;28;20120;-67
2024/02/05 10:35:25;;;;;;;11.55;3.80;;;;;;;18.54;47.79;101973.00;5004490;28;20109;-66
2024/02/05 10:37:51;;;;;;;12.05;3.20;;;;;;;18.44;47.50;101951.63;5003689;28;20079;-64
2024/02/05 10:40:17;;;;;;;7.40;3.30;;;;;;;18.53;47.41;101964.22;5004279;28;20037;-67
2024/02/05 10:42:43;;;;;;;9.15;3.80;;;;;;;18.59;47.46;101968.25;5009194;28;20084;-67
2024/02/05 10:45:09;;;;;;;9.80;3.28;;;;;;;18.47;47.80;101951.44;5009138;28;20041;-66
2024/02/05 10:47:35;;;;;;;12.60;4.05;;;;;;;18.47;47.73;101947.00;4984479;28;20415;-66
2024/02/05 10:50:01;;;;;;;12.93;4.00;;;;;;;18.51;47.84;101955.56;4980096;28;20066;-66
2024/02/05 10:52:27;;;;;;;10.27;3.55;;;;;;;18.49;47.54;101954.81;4979863;28;20067;-65
2024/02/05 10:54:55;;;;;;;8.57;3.20;;;;;;;18.59;47.56;101962.97;4979855;28;20069;-68
2024/02/05 10:57:23;;;;;;;9.90;3.22;;;;;;;18.62;47.38;101975.97;4980579;28;20121;-67
2024/02/05 10:59:49;;;;;;;11.55;3.78;;;;;;;18.48;47.61;101951.34;4980231;28;20026;-68
2024/02/05 11:02:25;;;;;;;9.35;3.35;;;;;;;18.65;47.59;101970.50;4970032;28;20089;-68
2024/02/05 11:04:54;;;;;;;11.35;3.28;;;;;;;18.64;47.76;101960.88;4980722;28;20080;-68
2024/02/05 11:07:21;;;;;;;12.00;3.92;;;;;;;18.45;47.67;101926.91;4980041;28;20041;-68
2024/02/05 11:09:48;;;;;;;11.60;3.72;;;;;;;18.52;47.64;101930.84;4980050;28;20030;-67
2024/02/05 11:12:18;;;;;;;10.55;3.35;;;;;;;18.59;47.54;101937.41;4980267;28;20027;-69
2024/02/05 11:14:46;;;;;;;12.82;3.67;;;;;;;18.58;47.41;101930.44;4980588;28;20046;-69
2024/02/05 11:17:14;;;;;;;12.13;3.47;;;;;;;18.66;47.28;101941.34;4979696;28;20232;-66